createdAt,value
2018-07-06T00:00:43.015Z,20.10
2018-07-06T00:03:21.994Z,20.10
2018-07-06T00:06:01.063Z,20.10
2018-07-06T00:08:40.318Z,20.00
2018-07-06T00:11:19.512Z,20.00
2018-07-06T00:13:58.674Z,20.00
2018-07-06T00:16:37.798Z,20.00
2018-07-06T00:19:16.876Z,20.10
2018-07-06T00:21:56.109Z,20.20
2018-07-06T00:24:35.033Z,20.10
2018-07-06T00:27:14.043Z,20.10
2018-07-06T00:29:53.250Z,20.20
2018-07-06T00:32:32.322Z,20.20
2018-07-06T00:35:11.382Z,20.20
2018-07-06T00:37:50.235Z,20.20
2018-07-06T00:40:29.160Z,20.20
2018-07-06T00:43:08.088Z,20.20
2018-07-06T00:45:47.248Z,20.20
2018-07-06T00:48:26.332Z,20.10
2018-07-06T00:51:05.445Z,20.00
2018-07-06T00:53:44.528Z,20.00
2018-07-06T00:56:23.528Z,20.00
2018-07-06T00:59:02.530Z,20.00
2018-07-06T01:01:42.194Z,20.00
2018-07-06T01:04:26.189Z,20.10
2018-07-06T01:10:06.221Z,20.10
2018-07-06T01:12:51.655Z,20.10
2018-07-06T01:15:39.352Z,20.10
2018-07-06T01:18:21.420Z,20.10
2018-07-06T01:24:15.561Z,20.10
2018-07-06T01:26:55.260Z,20.20
2018-07-06T01:29:35.074Z,20.20
2018-07-06T01:32:14.204Z,20.20
2018-07-06T01:34:53.275Z,20.10
2018-07-06T01:37:32.265Z,20.10
2018-07-06T01:40:11.178Z,20.10
2018-07-06T01:45:23.234Z,20.10
2018-07-06T01:48:02.297Z,20.10
2018-07-06T01:50:41.928Z,20.10
2018-07-06T01:53:21.065Z,20.10
2018-07-06T01:56:00.222Z,20.00
2018-07-06T01:58:39.306Z,20.00
2018-07-06T02:02:12.237Z,20.00
2018-07-06T02:04:53.339Z,19.90
2018-07-06T02:07:33.539Z,19.90
2018-07-06T02:10:13.681Z,19.90
2018-07-06T02:12:52.826Z,19.90
2018-07-06T02:15:31.906Z,19.90
2018-07-06T02:20:44.656Z,19.90
2018-07-06T02:23:23.906Z,19.80
2018-07-06T02:26:02.769Z,19.90
2018-07-06T02:28:41.783Z,19.90
2018-07-06T02:31:20.881Z,19.90
2018-07-06T02:34:00.016Z,19.70
2018-07-06T02:36:39.104Z,19.70
2018-07-06T02:39:18.086Z,19.60
2018-07-06T02:41:57.020Z,19.60
2018-07-06T02:44:36.033Z,19.40
2018-07-06T02:47:15.395Z,19.30
2018-07-06T02:49:54.342Z,19.40
2018-07-06T02:52:33.205Z,19.50
2018-07-06T02:55:12.081Z,19.50
2018-07-06T02:57:52.066Z,19.50
2018-07-06T03:00:31.109Z,19.60
2018-07-06T03:03:10.206Z,19.60
2018-07-06T03:05:49.189Z,19.60
2018-07-06T03:08:28.188Z,19.50
2018-07-06T03:11:07.195Z,19.40
2018-07-06T03:16:19.445Z,19.40
2018-07-06T03:18:58.485Z,19.50
2018-07-06T03:21:37.403Z,19.50
2018-07-06T03:24:16.404Z,19.40
2018-07-06T03:26:55.352Z,19.40
2018-07-06T03:29:34.435Z,19.50
2018-07-06T03:32:13.572Z,19.60
2018-07-06T03:34:52.524Z,19.50
2018-07-06T03:37:31.576Z,19.60
2018-07-06T03:40:10.530Z,19.60
2018-07-06T03:42:49.529Z,19.60
2018-07-06T03:45:28.498Z,19.70
2018-07-06T03:48:07.594Z,19.60
2018-07-06T03:50:46.549Z,19.60
2018-07-06T03:53:25.440Z,19.60
2018-07-06T03:56:04.430Z,19.40
2018-07-06T03:58:43.504Z,19.40
2018-07-06T04:01:22.299Z,19.40
2018-07-06T04:04:01.460Z,19.40
2018-07-06T04:06:40.309Z,19.40
2018-07-06T04:09:19.522Z,19.40
2018-07-06T04:11:58.433Z,19.30
2018-07-06T04:14:37.386Z,19.40
2018-07-06T04:17:16.729Z,19.30
2018-07-06T04:19:55.806Z,19.40
2018-07-06T04:22:34.927Z,19.50
2018-07-06T04:25:13.971Z,19.50
2018-07-06T04:27:52.968Z,19.50
2018-07-06T04:30:32.066Z,19.60
2018-07-06T04:33:11.208Z,19.60
2018-07-06T04:35:50.230Z,19.60
2018-07-06T04:38:29.265Z,19.60
2018-07-06T04:41:08.408Z,19.60
2018-07-06T04:43:47.465Z,19.50
2018-07-06T04:46:26.506Z,19.50
2018-07-06T04:49:05.470Z,19.50
2018-07-06T04:51:44.517Z,19.50
2018-07-06T04:54:23.619Z,19.50
2018-07-06T04:57:02.759Z,19.50
2018-07-06T04:59:41.891Z,19.50
2018-07-06T05:02:21.062Z,19.50
2018-07-06T05:05:00.079Z,19.60
2018-07-06T05:07:39.313Z,19.60
2018-07-06T05:10:18.484Z,19.60
2018-07-06T05:12:57.568Z,19.60
2018-07-06T05:18:09.861Z,19.40
2018-07-06T05:20:48.787Z,19.40
2018-07-06T05:23:27.719Z,19.50
2018-07-06T05:26:06.741Z,19.50
2018-07-06T05:28:45.587Z,19.50
2018-07-06T05:31:24.347Z,19.50
2018-07-06T05:34:03.312Z,19.40
2018-07-06T05:36:42.224Z,19.40
2018-07-06T05:39:21.150Z,19.30
2018-07-06T05:42:00.086Z,19.30
2018-07-06T05:44:39.006Z,19.30
2018-07-06T05:47:17.918Z,19.40
2018-07-06T05:49:56.969Z,19.40
2018-07-06T05:52:35.972Z,19.40
2018-07-06T05:55:14.935Z,19.60
2018-07-06T05:57:54.589Z,19.60
2018-07-06T06:00:33.636Z,19.70
2018-07-06T06:03:12.617Z,19.60
2018-07-06T06:05:51.678Z,19.60
2018-07-06T06:08:18.190Z,19.70
2018-07-06T06:10:45.775Z,19.70
2018-07-06T06:13:13.405Z,19.80
2018-07-06T06:15:40.992Z,19.90
2018-07-06T06:18:08.622Z,20.00
2018-07-06T06:20:36.220Z,20.00
2018-07-06T06:23:03.861Z,20.00
2018-07-06T06:25:31.481Z,20.10
2018-07-06T06:27:59.161Z,20.00
2018-07-06T06:30:26.864Z,20.10
2018-07-06T06:32:54.725Z,20.10
2018-07-06T06:35:22.351Z,20.10
2018-07-06T06:37:49.970Z,20.20
2018-07-06T06:40:17.600Z,20.30
2018-07-06T06:42:45.414Z,20.40
2018-07-06T06:45:14.036Z,20.40
2018-07-06T06:47:41.672Z,20.40
2018-07-06T06:50:09.322Z,20.50
2018-07-06T06:52:37.007Z,20.50
2018-07-06T06:55:04.634Z,20.50
2018-07-06T06:57:32.331Z,20.50
2018-07-06T07:00:00.184Z,20.50
2018-07-06T07:02:27.869Z,20.50
2018-07-06T07:04:55.572Z,20.50
2018-07-06T07:07:23.330Z,20.50
2018-07-06T07:09:50.960Z,20.60
2018-07-06T07:12:18.551Z,20.60
2018-07-06T07:14:46.224Z,20.60
2018-07-06T07:17:13.845Z,20.60
2018-07-06T07:19:41.536Z,20.50
2018-07-06T07:22:09.364Z,20.60
2018-07-06T07:24:37.740Z,20.60
2018-07-06T07:27:05.423Z,20.60
2018-07-06T07:29:33.145Z,20.70
2018-07-06T07:32:00.807Z,20.70
2018-07-06T07:34:28.601Z,20.70
2018-07-06T07:36:56.631Z,20.80
2018-07-06T07:39:24.303Z,20.80
2018-07-06T07:41:52.241Z,20.80
2018-07-06T07:46:47.495Z,20.90
2018-07-06T07:49:15.069Z,20.80
2018-07-06T07:51:56.381Z,20.80
2018-07-06T07:54:29.290Z,20.90
2018-07-06T07:56:57.882Z,20.90
2018-07-06T07:59:26.502Z,21.00
2018-07-06T08:01:54.203Z,21.00
2018-07-06T08:04:22.131Z,21.10
2018-07-06T08:06:49.892Z,21.10
2018-07-06T08:09:17.577Z,21.10
2018-07-06T08:11:46.602Z,21.10
2018-07-06T08:14:14.334Z,21.10
2018-07-06T08:16:41.960Z,21.00
2018-07-06T08:19:09.675Z,21.00
2018-07-06T08:21:37.286Z,21.00
2018-07-06T08:24:04.961Z,21.10
2018-07-06T08:26:32.563Z,21.20
2018-07-06T08:29:00.160Z,21.30
2018-07-06T08:31:27.780Z,21.30
2018-07-06T08:34:06.568Z,21.40
2018-07-06T08:37:50.296Z,21.50
2018-07-06T08:40:18.475Z,21.40
2018-07-06T08:42:48.105Z,21.40
2018-07-06T08:45:15.746Z,21.40
2018-07-06T08:47:43.831Z,21.60
2018-07-06T08:50:11.520Z,21.70
2018-07-06T08:52:40.089Z,21.90
2018-07-06T08:55:07.740Z,22.10
2018-07-06T08:57:36.112Z,22.30
2018-07-06T09:00:03.768Z,22.40
2018-07-06T09:02:31.393Z,22.60
2018-07-06T09:04:59.721Z,22.80
2018-07-06T09:07:27.352Z,22.90
2018-07-06T09:09:55.738Z,23.00
2018-07-06T09:12:23.598Z,23.20
2018-07-06T09:14:51.164Z,23.30
2018-07-06T09:17:19.629Z,23.50
2018-07-06T09:19:47.914Z,23.60
2018-07-06T09:22:16.062Z,23.60
2018-07-06T09:24:44.504Z,23.70
2018-07-06T09:27:12.249Z,23.80
2018-07-06T09:29:40.255Z,23.90
2018-07-06T09:32:08.362Z,24.00
2018-07-06T09:34:36.113Z,24.20
2018-07-06T09:37:03.986Z,24.60
2018-07-06T09:39:31.609Z,25.00
2018-07-06T09:41:59.299Z,25.40
2018-07-06T09:44:26.936Z,25.80
2018-07-06T09:46:54.621Z,26.10
2018-07-06T09:49:22.286Z,26.30
2018-07-06T09:51:52.484Z,26.50
2018-07-06T09:54:20.377Z,26.60
2018-07-06T09:56:48.100Z,26.70
2018-07-06T09:59:15.761Z,26.60
2018-07-06T10:01:43.455Z,26.60
2018-07-06T10:04:11.186Z,26.40
2018-07-06T10:06:38.909Z,26.00
2018-07-06T10:09:07.203Z,25.70
2018-07-06T10:11:34.872Z,25.30
2018-07-06T10:14:03.605Z,25.00
2018-07-06T10:16:31.331Z,24.70
2018-07-06T10:18:58.977Z,24.60
2018-07-06T10:21:26.900Z,24.60
2018-07-06T10:23:54.644Z,24.60
2018-07-06T10:26:22.451Z,24.60
2018-07-06T10:29:01.412Z,24.40
2018-07-06T10:31:37.668Z,24.40
2018-07-06T10:34:05.379Z,24.30
2018-07-06T10:36:33.076Z,24.20
2018-07-06T10:39:00.718Z,24.10
2018-07-06T10:41:28.428Z,24.20
2018-07-06T10:43:56.022Z,24.40
2018-07-06T10:46:23.631Z,24.80
2018-07-06T10:48:51.211Z,25.50
2018-07-06T10:51:18.787Z,26.00
2018-07-06T10:53:46.368Z,26.30
2018-07-06T10:56:14.013Z,26.60
2018-07-06T10:58:41.580Z,27.20
2018-07-06T11:01:09.609Z,27.60
2018-07-06T11:03:37.272Z,27.90
2018-07-06T11:06:04.933Z,28.10
2018-07-06T11:08:32.580Z,28.10
2018-07-06T11:11:00.194Z,28.10
2018-07-06T11:13:27.771Z,28.50
2018-07-06T11:15:55.371Z,28.70
2018-07-06T11:18:22.951Z,28.90
2018-07-06T11:20:50.560Z,29.00
2018-07-06T11:23:18.208Z,29.10
2018-07-06T11:25:45.793Z,29.20
2018-07-06T11:28:13.384Z,29.10
2018-07-06T11:30:40.990Z,29.10
2018-07-06T11:33:08.698Z,29.10
2018-07-06T11:35:36.321Z,29.40
2018-07-06T11:38:03.976Z,29.90
2018-07-06T11:40:31.685Z,30.40
2018-07-06T11:42:59.261Z,31.20
2018-07-06T11:45:26.845Z,31.40
2018-07-06T11:50:22.073Z,33.90
2018-07-06T11:52:49.779Z,36.10
2018-07-06T11:55:19.624Z,38.40
2018-07-06T11:57:47.280Z,40.50
2018-07-06T12:00:14.875Z,42.20
2018-07-06T12:05:10.073Z,44.40
2018-07-06T12:07:39.269Z,44.20
2018-07-06T12:10:06.970Z,44.30
2018-07-06T12:12:34.524Z,43.50
2018-07-06T12:15:02.160Z,44.40
2018-07-06T12:17:29.840Z,45.50
2018-07-06T12:19:57.442Z,46.80
2018-07-06T12:22:25.059Z,47.90
2018-07-06T12:27:20.242Z,49.20
2018-07-06T12:29:47.882Z,49.70
2018-07-06T12:32:15.624Z,49.40
2018-07-06T12:34:43.198Z,47.30
2018-07-06T12:37:10.830Z,46.60
2018-07-06T12:39:38.402Z,47.40
2018-07-06T12:42:06.991Z,48.60
2018-07-06T12:44:34.687Z,49.70
2018-07-06T12:47:02.264Z,49.20
2018-07-06T12:49:29.862Z,47.20
2018-07-06T12:51:57.504Z,45.60
2018-07-06T12:54:25.120Z,44.00
2018-07-06T12:56:53.027Z,43.40
2018-07-06T12:59:23.414Z,42.80
2018-07-06T13:01:50.999Z,41.00
2018-07-06T13:04:18.602Z,38.90
2018-07-06T13:06:46.224Z,37.00
2018-07-06T13:09:13.825Z,35.20
2018-07-06T13:11:41.389Z,33.60
2018-07-06T13:14:09.017Z,32.30
2018-07-06T13:19:04.305Z,30.40
2018-07-06T13:21:31.957Z,29.70
2018-07-06T13:23:59.608Z,29.30
2018-07-06T13:26:27.224Z,28.90
2018-07-06T13:28:54.857Z,28.60
2018-07-06T13:31:22.527Z,28.30
2018-07-06T13:33:50.281Z,28.00
2018-07-06T13:36:17.840Z,27.80
2018-07-06T13:38:45.395Z,27.60
2018-07-06T13:41:12.959Z,27.40
2018-07-06T13:43:40.557Z,27.10
2018-07-06T13:46:08.185Z,27.00
2018-07-06T13:48:35.787Z,26.90
2018-07-06T13:51:03.452Z,26.80
2018-07-06T13:53:31.028Z,26.60
2018-07-06T13:55:58.644Z,26.70
2018-07-06T13:58:26.278Z,26.60
2018-07-06T14:00:54.016Z,26.80
2018-07-06T14:03:21.616Z,26.90
2018-07-06T14:05:49.469Z,27.10
2018-07-06T14:08:17.050Z,27.30
2018-07-06T14:10:45.103Z,27.60
2018-07-06T14:13:12.795Z,28.20
2018-07-06T14:15:40.382Z,29.30
2018-07-06T14:18:08.002Z,30.40
2018-07-06T14:23:10.152Z,31.40
2018-07-06T14:25:37.767Z,31.40
2018-07-06T14:28:05.528Z,31.40
2018-07-06T14:30:33.066Z,31.30
2018-07-06T14:33:00.690Z,31.00
2018-07-06T14:35:28.262Z,30.70
2018-07-06T14:37:55.901Z,30.60
2018-07-06T14:40:23.476Z,30.50
2018-07-06T14:42:51.128Z,30.40
2018-07-06T14:45:18.766Z,30.60
2018-07-06T14:47:46.377Z,30.90
2018-07-06T14:50:14.027Z,31.80
2018-07-06T14:52:41.703Z,33.00
2018-07-06T14:55:09.294Z,33.70
2018-07-06T15:00:10.937Z,33.40
2018-07-06T15:02:38.690Z,32.80
2018-07-06T15:05:06.309Z,33.00
2018-07-06T15:07:33.927Z,34.40
2018-07-06T15:10:01.599Z,35.40
2018-07-06T15:12:29.387Z,35.50
2018-07-06T15:14:57.065Z,35.00
2018-07-06T15:17:24.736Z,34.30
2018-07-06T15:19:52.399Z,33.90
2018-07-06T15:22:20.277Z,34.20
2018-07-06T15:24:47.944Z,35.70
2018-07-06T15:27:15.628Z,37.20
2018-07-06T15:29:43.233Z,38.40
2018-07-06T15:32:10.952Z,39.30
2018-07-06T15:34:38.647Z,39.90
2018-07-06T15:37:06.310Z,40.00
2018-07-06T15:39:33.959Z,39.50
2018-07-06T15:42:01.671Z,38.10
2018-07-06T15:44:29.257Z,37.30
2018-07-06T15:46:57.070Z,37.50
2018-07-06T15:49:25.401Z,38.10
2018-07-06T15:51:53.100Z,38.70
2018-07-06T15:54:20.940Z,39.10
2018-07-06T15:56:48.774Z,39.10
2018-07-06T15:59:16.357Z,38.50
2018-07-06T16:01:43.973Z,37.40
2018-07-06T16:04:11.589Z,36.50
2018-07-06T16:06:39.246Z,36.30
2018-07-06T16:09:06.858Z,36.60
2018-07-06T16:11:34.549Z,36.50
2018-07-06T16:14:03.696Z,36.50
2018-07-06T16:18:59.055Z,35.20
2018-07-06T16:21:26.674Z,34.60
2018-07-06T16:26:22.772Z,34.40
2018-07-06T16:28:50.392Z,34.30
2018-07-06T16:31:18.017Z,33.90
2018-07-06T16:33:45.650Z,33.40
2018-07-06T16:36:13.233Z,32.90
2018-07-06T16:38:40.866Z,32.70
2018-07-06T16:41:08.506Z,32.50
2018-07-06T16:43:36.138Z,32.10
2018-07-06T16:46:03.752Z,31.80
2018-07-06T16:48:31.476Z,31.30
2018-07-06T16:51:04.691Z,30.90
2018-07-06T16:53:33.077Z,30.60
2018-07-06T16:56:01.304Z,30.30
2018-07-06T16:58:28.973Z,30.00
2018-07-06T17:00:56.726Z,29.80
2018-07-06T17:03:24.943Z,29.50
2018-07-06T17:05:52.622Z,29.20
2018-07-06T17:08:20.306Z,28.90
2018-07-06T17:10:49.128Z,28.60
2018-07-06T17:15:47.169Z,28.70
2018-07-06T17:18:16.184Z,28.80
2018-07-06T17:20:45.495Z,29.00
2018-07-06T17:23:16.732Z,29.10
2018-07-06T17:25:45.500Z,29.10
2018-07-06T17:28:13.128Z,29.10
2018-07-06T17:30:40.757Z,29.10
2018-07-06T17:33:08.455Z,29.00
2018-07-06T17:35:36.122Z,28.90
2018-07-06T17:38:03.807Z,28.80
2018-07-06T17:40:31.476Z,28.60
2018-07-06T17:42:59.115Z,28.40
2018-07-06T17:45:26.764Z,28.30
2018-07-06T17:47:54.465Z,28.00
2018-07-06T17:50:22.188Z,27.80
2018-07-06T17:52:49.870Z,27.50
2018-07-06T17:55:17.533Z,27.30
2018-07-06T17:57:45.195Z,27.10
2018-07-06T18:00:12.900Z,26.80
2018-07-06T18:02:40.530Z,26.50
2018-07-06T18:05:08.166Z,26.10
2018-07-06T18:07:35.845Z,25.90
2018-07-06T18:10:03.481Z,25.60
2018-07-06T18:12:31.160Z,25.50
2018-07-06T18:14:58.863Z,25.40
2018-07-06T18:17:26.593Z,25.20
2018-07-06T18:19:54.252Z,24.90
2018-07-06T18:22:22.696Z,24.40
2018-07-06T18:24:50.469Z,23.60
2018-07-06T18:27:18.124Z,22.80
2018-07-06T18:29:46.732Z,22.50
2018-07-06T18:32:14.410Z,22.20
2018-07-06T18:34:42.037Z,22.10
2018-07-06T18:37:11.147Z,22.00
2018-07-06T18:42:54.993Z,21.80
2018-07-06T18:45:22.643Z,21.70
2018-07-06T18:47:50.267Z,21.40
2018-07-06T18:50:18.010Z,21.10
2018-07-06T18:52:45.664Z,20.90
2018-07-06T18:55:13.312Z,20.90
2018-07-06T18:57:41.042Z,20.90
2018-07-06T19:00:09.234Z,20.90
2018-07-06T19:02:37.301Z,21.00
2018-07-06T19:05:05.183Z,21.00
2018-07-06T19:07:32.827Z,21.00
2018-07-06T19:10:00.530Z,21.00
2018-07-06T19:12:28.218Z,21.00
2018-07-06T19:14:55.895Z,21.00
2018-07-06T19:17:23.523Z,21.00
2018-07-06T19:19:51.329Z,21.00
2018-07-06T19:22:19.106Z,21.10
2018-07-06T19:24:46.795Z,21.10
2018-07-06T19:27:14.459Z,21.00
2018-07-06T19:29:42.177Z,21.00
2018-07-06T19:32:09.837Z,21.00
2018-07-06T19:34:39.574Z,21.00
2018-07-06T19:37:07.357Z,20.90
2018-07-06T19:39:35.028Z,20.90
2018-07-06T19:42:02.701Z,20.70
2018-07-06T19:44:30.680Z,20.60
2018-07-06T19:46:58.390Z,20.60
2018-07-06T19:49:26.049Z,20.60
2018-07-06T19:51:53.712Z,20.50
2018-07-06T19:54:21.352Z,20.50
2018-07-06T19:56:49.019Z,20.30
2018-07-06T19:59:16.635Z,20.10
2018-07-06T20:01:44.344Z,20.00
2018-07-06T20:04:12.001Z,20.00
2018-07-06T20:06:39.651Z,20.10
2018-07-06T20:11:34.937Z,20.00
2018-07-06T20:14:02.587Z,19.90
2018-07-06T20:16:30.257Z,19.90
2018-07-06T20:18:57.927Z,20.00
2018-07-06T20:21:25.619Z,20.00
2018-07-06T20:23:53.309Z,20.10
2018-07-06T20:26:20.960Z,20.00
2018-07-06T20:28:50.132Z,20.00
2018-07-06T20:31:17.800Z,20.00
2018-07-06T20:33:45.459Z,19.90
2018-07-06T20:36:13.198Z,19.90
2018-07-06T20:38:40.829Z,19.80
2018-07-06T20:41:08.512Z,19.70
2018-07-06T20:43:36.185Z,19.60
2018-07-06T20:46:03.979Z,19.70
2018-07-06T20:48:31.585Z,19.90
2018-07-06T20:50:59.237Z,19.90
2018-07-06T20:53:26.910Z,19.90
2018-07-06T20:55:54.558Z,20.00
2018-07-06T20:58:22.179Z,20.00
2018-07-06T21:00:49.868Z,20.00
2018-07-06T21:03:17.602Z,20.00
2018-07-06T21:05:45.180Z,20.10
2018-07-06T21:08:12.863Z,20.00
2018-07-06T21:10:40.545Z,20.00
2018-07-06T21:13:08.277Z,20.00
2018-07-06T21:15:35.965Z,20.00
2018-07-06T21:18:03.654Z,19.90
2018-07-06T21:20:31.316Z,19.90
2018-07-06T21:22:58.996Z,19.90
2018-07-06T21:25:26.637Z,19.90
2018-07-06T21:27:54.286Z,19.80
2018-07-06T21:30:21.943Z,19.90
2018-07-06T21:32:49.634Z,19.80
2018-07-06T21:35:17.225Z,19.80
2018-07-06T21:37:44.893Z,19.80
2018-07-06T21:40:12.523Z,19.80
2018-07-06T21:42:40.222Z,19.70
2018-07-06T21:45:07.875Z,19.70
2018-07-06T21:47:35.469Z,19.50
2018-07-06T21:50:03.182Z,19.50
2018-07-06T21:52:30.829Z,19.50
2018-07-06T21:54:58.544Z,19.60
2018-07-06T21:57:26.204Z,19.60
2018-07-06T21:59:53.792Z,19.60
2018-07-06T22:02:21.390Z,19.60
2018-07-06T22:04:49.090Z,19.60
2018-07-06T22:07:16.753Z,19.60
2018-07-06T22:09:44.815Z,19.50
2018-07-06T22:12:12.835Z,19.50
2018-07-06T22:14:40.845Z,19.50
2018-07-06T22:17:08.586Z,19.50
2018-07-06T22:19:36.196Z,19.50
2018-07-06T22:22:04.011Z,19.60
2018-07-06T22:24:31.718Z,19.60
2018-07-06T22:26:59.281Z,19.60
2018-07-06T22:29:26.922Z,19.60
2018-07-06T22:31:54.554Z,19.60
2018-07-06T22:36:49.729Z,19.60
2018-07-06T22:39:17.356Z,19.70
2018-07-06T22:44:12.444Z,19.70
2018-07-06T22:46:40.058Z,19.80
2018-07-06T22:49:07.692Z,19.80
2018-07-06T22:51:35.288Z,19.70
2018-07-06T22:54:02.899Z,19.70
2018-07-06T22:58:58.050Z,19.60
2018-07-06T23:01:25.724Z,19.60
2018-07-06T23:03:53.368Z,19.60
2018-07-06T23:06:20.921Z,19.60
2018-07-06T23:08:48.521Z,19.60
2018-07-06T23:11:16.191Z,19.50
2018-07-06T23:13:43.795Z,19.50
2018-07-06T23:18:38.876Z,19.30
2018-07-06T23:21:06.926Z,19.30
2018-07-06T23:23:34.505Z,19.30
2018-07-06T23:26:02.125Z,19.20
2018-07-06T23:28:29.744Z,19.20
2018-07-06T23:30:57.329Z,19.10
2018-07-06T23:33:24.925Z,19.10
2018-07-06T23:35:52.536Z,19.10
2018-07-06T23:40:47.638Z,19.00
2018-07-06T23:43:15.331Z,19.00
2018-07-06T23:45:42.920Z,18.90
2018-07-06T23:48:10.514Z,18.90
2018-07-06T23:50:38.095Z,18.90
2018-07-06T23:53:05.749Z,18.80
2018-07-06T23:55:33.352Z,18.90
2018-07-06T23:58:01.040Z,18.70
